Pagrindinis puslapis
METAR-TAF:

METAR-TAF

Oro uostai :

Saipanas, Marianų salos, Jungtinės Amerikos Valstijos

platuma: 15-07N, ilguma: 145-44E, Aukštis: 66 m

Dabartinis oras

Ataskaita buvo paskelbta 51 minutes, ne 08:54 UTC
Vėjas 10 kt iš Rytų
Temperatūra 29°C
Drėgmė 74%
Slėgis 1012 hPa
Matomumas: 16.1 km
Išsisklaidę debesys ne aukštis 2200 ft

METAR: PGSN 220854Z 08010KT 10SM SCT022 29/24 A2988 RMK AO2 SLP139 T02940244 53006

Laikas: 19:45 (09:45 UTC)

Prognozė

Ataskaita buvo paskelbta 4 valandos ir 25 minutes, ne 05:20 UTC
Prognozė galioja nuo 22 metu 06 UTC su 23 metu 06 UTC
Vėjas 14 kt iš Rytų su gūsio iki 22 kt
Matomumas: 10 km
Išsisklaidę debesys ne aukštis 2500 ft
Liūtis kaimynystėje
Nuo 22 metu 0900 UTC
Vėjas 8 kt iš Rytų
Matomumas: 10 km
Mažai debesys ne aukštis 2000 ft
Liūtis kaimynystėje,

TAF: PGSN 220520Z 2206/2306 09014G22KT P6SM VCSH SCT025 FM220900 09008KT P6SM VCSH FEW020

Orai ataskaitas ir orų prognozės (METAR, TAF).

turimą stotys yra geltonos ir raudonos taškus žemėlapyje.

Perkelti pele per norėdami pamatyti stoties vardą.

Tada spustelėkite, norėdami matyti oro stebėjimo ir prognozės.

Norėdami pakeisti žemėlapį: spustelėkite ant žalios mygtukų su juodo kryžiaus žemyn,; žalią mygtuką su brūkšneliu, jei norite nutolinti; arba žalių rodyklių gretimoms žemėlapius.


METAR-TAF: